sensor_id;sensor_type;location;lat;lon;timestamp;P1;durP1;ratioP1;P2;durP2;ratioP2
6693;SDS011;3384;42.628;23.380;2023-03-05T00:00:51;29.20;;;16.63;;
6693;SDS011;3384;42.628;23.380;2023-03-05T00:03:17;37.60;;;18.20;;
6693;SDS011;3384;42.628;23.380;2023-03-05T00:05:44;25.70;;;17.20;;
6693;SDS011;3384;42.628;23.380;2023-03-05T00:08:10;30.87;;;18.77;;
6693;SDS011;3384;42.628;23.380;2023-03-05T00:10:37;35.10;;;18.13;;
6693;SDS011;3384;42.628;23.380;2023-03-05T00:13:03;35.37;;;20.70;;
6693;SDS011;3384;42.628;23.380;2023-03-05T00:15:31;30.50;;;18.80;;
6693;SDS011;3384;42.628;23.380;2023-03-05T00:17:58;37.37;;;18.90;;
6693;SDS011;3384;42.628;23.380;2023-03-05T00:20:24;26.10;;;18.87;;
6693;SDS011;3384;42.628;23.380;2023-03-05T00:22:51;37.90;;;18.87;;
6693;SDS011;3384;42.628;23.380;2023-03-05T00:25:17;28.47;;;18.30;;
6693;SDS011;3384;42.628;23.380;2023-03-05T00:27:44;34.77;;;19.83;;
6693;SDS011;3384;42.628;23.380;2023-03-05T00:30:11;32.93;;;17.40;;
6693;SDS011;3384;42.628;23.380;2023-03-05T00:32:39;30.77;;;19.00;;
6693;SDS011;3384;42.628;23.380;2023-03-05T00:35:05;30.67;;;16.60;;
6693;SDS011;3384;42.628;23.380;2023-03-05T00:37:32;30.60;;;17.97;;
6693;SDS011;3384;42.628;23.380;2023-03-05T00:39:59;23.57;;;15.57;;
6693;SDS011;3384;42.628;23.380;2023-03-05T00:42:25;30.10;;;16.37;;
6693;SDS011;3384;42.628;23.380;2023-03-05T00:44:52;31.87;;;17.57;;
6693;SDS011;3384;42.628;23.380;2023-03-05T00:47:18;32.13;;;19.20;;
6693;SDS011;3384;42.628;23.380;2023-03-05T00:49:46;29.40;;;18.03;;
6693;SDS011;3384;42.628;23.380;2023-03-05T00:52:13;31.37;;;17.27;;
6693;SDS011;3384;42.628;23.380;2023-03-05T00:54:39;28.33;;;18.57;;
6693;SDS011;3384;42.628;23.380;2023-03-05T00:57:06;35.73;;;18.33;;
6693;SDS011;3384;42.628;23.380;2023-03-05T00:59:32;32.97;;;19.00;;
6693;SDS011;3384;42.628;23.380;2023-03-05T01:01:59;31.50;;;19.00;;
6693;SDS011;3384;42.628;23.380;2023-03-05T01:04:25;35.87;;;17.73;;
6693;SDS011;3384;42.628;23.380;2023-03-05T01:06:53;32.53;;;17.93;;
6693;SDS011;3384;42.628;23.380;2023-03-05T01:09:20;29.80;;;18.70;;
6693;SDS011;3384;42.628;23.380;2023-03-05T01:11:49;32.40;;;18.37;;
6693;SDS011;3384;42.628;23.380;2023-03-05T01:14:16;28.33;;;16.50;;
6693;SDS011;3384;42.628;23.380;2023-03-05T01:16:42;39.00;;;17.83;;
6693;SDS011;3384;42.628;23.380;2023-03-05T01:19:09;29.90;;;17.70;;
6693;SDS011;3384;42.628;23.380;2023-03-05T01:21:36;41.73;;;16.83;;
6693;SDS011;3384;42.628;23.380;2023-03-05T01:24:04;30.60;;;16.50;;
6693;SDS011;3384;42.628;23.380;2023-03-05T01:26:31;29.13;;;17.93;;
6693;SDS011;3384;42.628;23.380;2023-03-05T01:28:57;26.97;;;17.20;;
6693;SDS011;3384;42.628;23.380;2023-03-05T01:31:24;24.27;;;15.50;;
6693;SDS011;3384;42.628;23.380;2023-03-05T01:33:51;30.20;;;14.80;;
6693;SDS011;3384;42.628;23.380;2023-03-05T01:36:19;21.63;;;12.30;;
6693;SDS011;3384;42.628;23.380;2023-03-05T01:38:49;23.57;;;14.03;;
6693;SDS011;3384;42.628;23.380;2023-03-05T01:41:17;20.57;;;14.20;;
6693;SDS011;3384;42.628;23.380;2023-03-05T01:43:44;23.87;;;13.23;;
6693;SDS011;3384;42.628;23.380;2023-03-05T01:49:16;24.40;;;12.60;;
6693;SDS011;3384;42.628;23.380;2023-03-05T01:51:50;19.83;;;13.43;;
6693;SDS011;3384;42.628;23.380;2023-03-05T01:54:20;19.40;;;13.23;;
6693;SDS011;3384;42.628;23.380;2023-03-05T01:56:49;18.87;;;12.10;;
6693;SDS011;3384;42.628;23.380;2023-03-05T01:59:16;14.50;;;11.83;;
6693;SDS011;3384;42.628;23.380;2023-03-05T02:01:45;15.87;;;11.20;;
6693;SDS011;3384;42.628;23.380;2023-03-05T02:04:13;20.57;;;11.90;;
6693;SDS011;3384;42.628;23.380;2023-03-05T02:06:40;16.30;;;11.20;;
6693;SDS011;3384;42.628;23.380;2023-03-05T02:09:07;15.77;;;11.70;;
6693;SDS011;3384;42.628;23.380;2023-03-05T02:11:34;14.30;;;10.47;;
6693;SDS011;3384;42.628;23.380;2023-03-05T02:14:02;20.70;;;12.00;;
6693;SDS011;3384;42.628;23.380;2023-03-05T02:16:30;18.03;;;11.53;;
6693;SDS011;3384;42.628;23.380;2023-03-05T02:19:00;18.57;;;11.43;;
6693;SDS011;3384;42.628;23.380;2023-03-05T02:21:35;17.03;;;12.40;;
6693;SDS011;3384;42.628;23.380;2023-03-05T02:24:02;16.27;;;10.93;;
6693;SDS011;3384;42.628;23.380;2023-03-05T02:26:28;17.07;;;11.00;;
6693;SDS011;3384;42.628;23.380;2023-03-05T02:28:56;20.73;;;10.97;;
6693;SDS011;3384;42.628;23.380;2023-03-05T02:31:23;21.63;;;12.87;;
6693;SDS011;3384;42.628;23.380;2023-03-05T02:33:51;11.70;;;10.50;;
6693;SDS011;3384;42.628;23.380;2023-03-05T02:36:18;12.00;;;10.07;;
6693;SDS011;3384;42.628;23.380;2023-03-05T02:38:45;15.40;;;10.43;;
6693;SDS011;3384;42.628;23.380;2023-03-05T02:41:12;17.77;;;11.57;;
6693;SDS011;3384;42.628;23.380;2023-03-05T02:43:39;13.13;;;10.90;;
6693;SDS011;3384;42.628;23.380;2023-03-05T02:46:06;18.13;;;12.73;;
6693;SDS011;3384;42.628;23.380;2023-03-05T02:48:33;16.97;;;10.50;;
6693;SDS011;3384;42.628;23.380;2023-03-05T02:50:59;17.50;;;13.17;;
6693;SDS011;3384;42.628;23.380;2023-03-05T02:53:26;13.03;;;9.77;;
6693;SDS011;3384;42.628;23.380;2023-03-05T02:55:54;17.87;;;11.23;;
6693;SDS011;3384;42.628;23.380;2023-03-05T02:58:21;22.17;;;11.40;;
6693;SDS011;3384;42.628;23.380;2023-03-05T03:00:47;14.33;;;10.60;;
6693;SDS011;3384;42.628;23.380;2023-03-05T03:03:14;16.03;;;12.17;;
6693;SDS011;3384;42.628;23.380;2023-03-05T03:05:40;16.80;;;11.57;;
6693;SDS011;3384;42.628;23.380;2023-03-05T03:08:07;19.77;;;11.37;;
6693;SDS011;3384;42.628;23.380;2023-03-05T03:10:34;24.07;;;11.60;;
6693;SDS011;3384;42.628;23.380;2023-03-05T03:13:02;16.80;;;10.20;;
6693;SDS011;3384;42.628;23.380;2023-03-05T03:15:28;19.53;;;13.17;;
6693;SDS011;3384;42.628;23.380;2023-03-05T03:17:55;18.27;;;11.50;;
6693;SDS011;3384;42.628;23.380;2023-03-05T03:20:22;23.17;;;12.20;;
6693;SDS011;3384;42.628;23.380;2023-03-05T03:22:49;21.13;;;12.93;;
6693;SDS011;3384;42.628;23.380;2023-03-05T03:25:17;20.10;;;12.27;;
6693;SDS011;3384;42.628;23.380;2023-03-05T03:27:44;19.60;;;13.00;;
6693;SDS011;3384;42.628;23.380;2023-03-05T03:30:12;13.87;;;10.30;;
6693;SDS011;3384;42.628;23.380;2023-03-05T03:32:39;20.90;;;13.57;;
6693;SDS011;3384;42.628;23.380;2023-03-05T03:35:06;17.43;;;10.83;;
6693;SDS011;3384;42.628;23.380;2023-03-05T03:37:32;16.23;;;8.43;;
6693;SDS011;3384;42.628;23.380;2023-03-05T03:39:59;21.97;;;13.30;;
6693;SDS011;3384;42.628;23.380;2023-03-05T03:42:26;15.67;;;9.50;;
6693;SDS011;3384;42.628;23.380;2023-03-05T03:44:52;22.60;;;12.07;;
6693;SDS011;3384;42.628;23.380;2023-03-05T03:47:20;19.50;;;11.80;;
6693;SDS011;3384;42.628;23.380;2023-03-05T03:49:46;16.37;;;11.10;;
6693;SDS011;3384;42.628;23.380;2023-03-05T03:52:13;18.03;;;12.27;;
6693;SDS011;3384;42.628;23.380;2023-03-05T03:54:40;24.50;;;13.40;;
6693;SDS011;3384;42.628;23.380;2023-03-05T03:57:06;17.43;;;12.70;;
6693;SDS011;3384;42.628;23.380;2023-03-05T03:59:33;19.80;;;11.20;;
6693;SDS011;3384;42.628;23.380;2023-03-05T04:01:59;18.07;;;12.87;;
6693;SDS011;3384;42.628;23.380;2023-03-05T04:04:27;21.20;;;11.57;;
6693;SDS011;3384;42.628;23.380;2023-03-05T04:06:54;16.90;;;9.07;;
6693;SDS011;3384;42.628;23.380;2023-03-05T04:09:20;32.03;;;15.70;;
6693;SDS011;3384;42.628;23.380;2023-03-05T04:11:47;13.47;;;9.87;;
6693;SDS011;3384;42.628;23.380;2023-03-05T04:14:14;23.47;;;11.57;;
6693;SDS011;3384;42.628;23.380;2023-03-05T04:16:40;26.40;;;13.93;;
6693;SDS011;3384;42.628;23.380;2023-03-05T04:19:07;24.73;;;14.50;;
6693;SDS011;3384;42.628;23.380;2023-03-05T04:21:34;20.27;;;12.53;;
6693;SDS011;3384;42.628;23.380;2023-03-05T04:24:01;21.53;;;14.77;;
6693;SDS011;3384;42.628;23.380;2023-03-05T04:26:28;16.87;;;12.33;;
6693;SDS011;3384;42.628;23.380;2023-03-05T04:28:54;22.67;;;14.23;;
6693;SDS011;3384;42.628;23.380;2023-03-05T04:31:21;19.23;;;10.20;;
6693;SDS011;3384;42.628;23.380;2023-03-05T04:33:47;25.90;;;11.90;;
6693;SDS011;3384;42.628;23.380;2023-03-05T04:36:14;21.50;;;13.87;;
6693;SDS011;3384;42.628;23.380;2023-03-05T04:38:42;22.90;;;12.17;;
6693;SDS011;3384;42.628;23.380;2023-03-05T04:41:08;20.97;;;11.30;;
6693;SDS011;3384;42.628;23.380;2023-03-05T04:43:35;12.00;;;10.03;;
6693;SDS011;3384;42.628;23.380;2023-03-05T04:46:01;16.43;;;11.27;;
6693;SDS011;3384;42.628;23.380;2023-03-05T04:48:28;19.87;;;11.87;;
6693;SDS011;3384;42.628;23.380;2023-03-05T04:50:54;24.77;;;14.43;;
6693;SDS011;3384;42.628;23.380;2023-03-05T04:53:21;18.77;;;11.27;;
6693;SDS011;3384;42.628;23.380;2023-03-05T04:55:52;21.60;;;12.27;;
6693;SDS011;3384;42.628;23.380;2023-03-05T04:58:18;19.00;;;12.33;;
6693;SDS011;3384;42.628;23.380;2023-03-05T05:00:45;29.53;;;15.50;;
6693;SDS011;3384;42.628;23.380;2023-03-05T05:03:12;16.23;;;12.90;;
6693;SDS011;3384;42.628;23.380;2023-03-05T05:05:38;22.93;;;12.30;;
6693;SDS011;3384;42.628;23.380;2023-03-05T05:08:05;22.10;;;12.90;;
6693;SDS011;3384;42.628;23.380;2023-03-05T05:10:31;20.93;;;11.87;;
6693;SDS011;3384;42.628;23.380;2023-03-05T05:12:59;18.73;;;11.13;;
6693;SDS011;3384;42.628;23.380;2023-03-05T05:15:25;20.93;;;13.97;;
6693;SDS011;3384;42.628;23.380;2023-03-05T05:17:52;20.10;;;12.63;;
6693;SDS011;3384;42.628;23.380;2023-03-05T05:20:19;30.53;;;15.00;;
6693;SDS011;3384;42.628;23.380;2023-03-05T05:22:45;30.63;;;15.47;;
6693;SDS011;3384;42.628;23.380;2023-03-05T05:25:12;18.57;;;10.53;;
6693;SDS011;3384;42.628;23.380;2023-03-05T05:27:38;23.03;;;12.40;;
6693;SDS011;3384;42.628;23.380;2023-03-05T05:30:07;21.80;;;12.77;;
6693;SDS011;3384;42.628;23.380;2023-03-05T05:32:33;21.53;;;11.57;;
6693;SDS011;3384;42.628;23.380;2023-03-05T05:35:00;22.90;;;11.87;;
6693;SDS011;3384;42.628;23.380;2023-03-05T05:37:28;20.90;;;11.47;;
6693;SDS011;3384;42.628;23.380;2023-03-05T05:39:54;19.13;;;12.30;;
6693;SDS011;3384;42.628;23.380;2023-03-05T05:42:21;16.90;;;12.20;;
6693;SDS011;3384;42.628;23.380;2023-03-05T05:44:48;20.03;;;12.20;;
6693;SDS011;3384;42.628;23.380;2023-03-05T05:47:16;20.23;;;10.93;;
6693;SDS011;3384;42.628;23.380;2023-03-05T05:49:43;17.70;;;12.63;;
6693;SDS011;3384;42.628;23.380;2023-03-05T05:52:09;19.00;;;12.10;;
6693;SDS011;3384;42.628;23.380;2023-03-05T05:54:36;23.50;;;11.57;;
6693;SDS011;3384;42.628;23.380;2023-03-05T05:57:03;20.93;;;10.23;;
6693;SDS011;3384;42.628;23.380;2023-03-05T05:59:29;11.53;;;8.90;;
6693;SDS011;3384;42.628;23.380;2023-03-05T06:01:56;15.17;;;10.53;;
6693;SDS011;3384;42.628;23.380;2023-03-05T06:04:24;15.00;;;9.90;;
6693;SDS011;3384;42.628;23.380;2023-03-05T06:06:50;15.30;;;8.67;;
6693;SDS011;3384;42.628;23.380;2023-03-05T06:09:17;11.47;;;9.70;;
6693;SDS011;3384;42.628;23.380;2023-03-05T06:11:43;16.07;;;11.13;;
6693;SDS011;3384;42.628;23.380;2023-03-05T06:14:10;15.70;;;8.50;;
6693;SDS011;3384;42.628;23.380;2023-03-05T06:16:37;11.30;;;8.77;;
6693;SDS011;3384;42.628;23.380;2023-03-05T06:19:04;10.40;;;7.93;;
6693;SDS011;3384;42.628;23.380;2023-03-05T06:21:32;18.30;;;7.27;;
6693;SDS011;3384;42.628;23.380;2023-03-05T06:23:58;19.33;;;9.70;;
6693;SDS011;3384;42.628;23.380;2023-03-05T06:26:25;17.83;;;10.70;;
6693;SDS011;3384;42.628;23.380;2023-03-05T06:28:51;16.03;;;10.23;;
6693;SDS011;3384;42.628;23.380;2023-03-05T06:31:19;18.40;;;10.97;;
6693;SDS011;3384;42.628;23.380;2023-03-05T06:33:47;12.63;;;9.13;;
6693;SDS011;3384;42.628;23.380;2023-03-05T06:36:14;19.00;;;8.50;;
6693;SDS011;3384;42.628;23.380;2023-03-05T06:38:42;9.90;;;7.67;;
6693;SDS011;3384;42.628;23.380;2023-03-05T06:41:10;8.20;;;7.40;;
6693;SDS011;3384;42.628;23.380;2023-03-05T06:43:37;9.10;;;8.30;;
6693;SDS011;3384;42.628;23.380;2023-03-05T06:46:05;15.37;;;9.17;;
6693;SDS011;3384;42.628;23.380;2023-03-05T06:48:32;14.23;;;11.07;;
6693;SDS011;3384;42.628;23.380;2023-03-05T06:50:58;13.10;;;8.40;;
6693;SDS011;3384;42.628;23.380;2023-03-05T06:53:25;15.77;;;9.70;;
6693;SDS011;3384;42.628;23.380;2023-03-05T06:55:53;11.73;;;8.77;;
6693;SDS011;3384;42.628;23.380;2023-03-05T06:58:19;17.03;;;8.93;;
6693;SDS011;3384;42.628;23.380;2023-03-05T07:00:46;13.63;;;8.67;;
6693;SDS011;3384;42.628;23.380;2023-03-05T07:03:12;14.97;;;8.17;;
6693;SDS011;3384;42.628;23.380;2023-03-05T07:05:39;9.27;;;6.13;;
6693;SDS011;3384;42.628;23.380;2023-03-05T07:08:06;16.00;;;8.10;;
6693;SDS011;3384;42.628;23.380;2023-03-05T07:10:36;16.07;;;9.60;;
6693;SDS011;3384;42.628;23.380;2023-03-05T07:13:04;22.47;;;9.60;;
6693;SDS011;3384;42.628;23.380;2023-03-05T07:15:30;8.53;;;6.73;;
6693;SDS011;3384;42.628;23.380;2023-03-05T07:17:57;10.67;;;7.17;;
6693;SDS011;3384;42.628;23.380;2023-03-05T07:20:23;14.60;;;8.90;;
6693;SDS011;3384;42.628;23.380;2023-03-05T07:22:50;9.10;;;6.43;;
6693;SDS011;3384;42.628;23.380;2023-03-05T07:25:16;15.47;;;9.83;;
6693;SDS011;3384;42.628;23.380;2023-03-05T07:27:45;16.10;;;8.00;;
6693;SDS011;3384;42.628;23.380;2023-03-05T07:30:14;7.80;;;6.80;;
6693;SDS011;3384;42.628;23.380;2023-03-05T07:32:40;24.73;;;10.50;;
6693;SDS011;3384;42.628;23.380;2023-03-05T07:35:07;22.93;;;13.67;;
6693;SDS011;3384;42.628;23.380;2023-03-05T07:37:34;18.53;;;11.60;;
6693;SDS011;3384;42.628;23.380;2023-03-05T07:40:00;22.93;;;12.00;;
6693;SDS011;3384;42.628;23.380;2023-03-05T07:42:27;20.10;;;11.37;;
6693;SDS011;3384;42.628;23.380;2023-03-05T07:44:54;18.90;;;9.03;;
6693;SDS011;3384;42.628;23.380;2023-03-05T07:47:22;15.70;;;10.17;;
6693;SDS011;3384;42.628;23.380;2023-03-05T07:49:48;17.47;;;12.90;;
6693;SDS011;3384;42.628;23.380;2023-03-05T07:52:15;22.60;;;11.40;;
6693;SDS011;3384;42.628;23.380;2023-03-05T07:54:42;22.00;;;12.10;;
6693;SDS011;3384;42.628;23.380;2023-03-05T07:57:09;16.37;;;9.43;;
6693;SDS011;3384;42.628;23.380;2023-03-05T07:59:36;12.23;;;9.13;;
6693;SDS011;3384;42.628;23.380;2023-03-05T08:02:03;25.23;;;15.47;;
6693;SDS011;3384;42.628;23.380;2023-03-05T08:04:31;15.47;;;9.20;;
6693;SDS011;3384;42.628;23.380;2023-03-05T08:06:58;17.37;;;11.43;;
6693;SDS011;3384;42.628;23.380;2023-03-05T08:09:24;22.17;;;10.70;;
6693;SDS011;3384;42.628;23.380;2023-03-05T08:11:51;14.53;;;10.80;;
6693;SDS011;3384;42.628;23.380;2023-03-05T08:14:17;22.23;;;11.30;;
6693;SDS011;3384;42.628;23.380;2023-03-05T08:16:44;16.67;;;11.60;;
6693;SDS011;3384;42.628;23.380;2023-03-05T08:19:11;22.57;;;14.30;;
6693;SDS011;3384;42.628;23.380;2023-03-05T08:21:39;30.90;;;12.87;;
6693;SDS011;3384;42.628;23.380;2023-03-05T08:24:06;22.03;;;12.60;;
6693;SDS011;3384;42.628;23.380;2023-03-05T08:26:34;18.10;;;11.90;;
6693;SDS011;3384;42.628;23.380;2023-03-05T08:29:01;19.67;;;11.07;;
6693;SDS011;3384;42.628;23.380;2023-03-05T08:31:28;17.10;;;11.70;;
6693;SDS011;3384;42.628;23.380;2023-03-05T08:33:56;20.47;;;12.07;;
6693;SDS011;3384;42.628;23.380;2023-03-05T08:36:23;14.57;;;8.80;;
6693;SDS011;3384;42.628;23.380;2023-03-05T08:38:51;24.23;;;12.10;;
6693;SDS011;3384;42.628;23.380;2023-03-05T08:41:18;17.57;;;11.50;;
6693;SDS011;3384;42.628;23.380;2023-03-05T08:43:44;23.97;;;12.80;;
6693;SDS011;3384;42.628;23.380;2023-03-05T08:46:12;21.90;;;11.60;;
6693;SDS011;3384;42.628;23.380;2023-03-05T08:48:38;20.40;;;13.50;;
6693;SDS011;3384;42.628;23.380;2023-03-05T08:51:06;30.50;;;12.80;;
6693;SDS011;3384;42.628;23.380;2023-03-05T08:53:32;22.73;;;15.97;;
6693;SDS011;3384;42.628;23.380;2023-03-05T08:56:01;20.03;;;13.63;;
6693;SDS011;3384;42.628;23.380;2023-03-05T08:58:28;19.03;;;13.87;;
6693;SDS011;3384;42.628;23.380;2023-03-05T09:00:54;16.97;;;9.20;;
6693;SDS011;3384;42.628;23.380;2023-03-05T09:03:21;15.40;;;11.20;;
6693;SDS011;3384;42.628;23.380;2023-03-05T09:05:48;21.27;;;13.17;;
6693;SDS011;3384;42.628;23.380;2023-03-05T09:08:15;25.73;;;13.80;;
6693;SDS011;3384;42.628;23.380;2023-03-05T09:10:42;19.57;;;12.17;;
6693;SDS011;3384;42.628;23.380;2023-03-05T09:13:11;24.37;;;15.50;;
6693;SDS011;3384;42.628;23.380;2023-03-05T09:15:37;21.17;;;15.50;;
6693;SDS011;3384;42.628;23.380;2023-03-05T09:18:04;18.97;;;12.47;;
6693;SDS011;3384;42.628;23.380;2023-03-05T09:20:32;20.53;;;13.67;;
6693;SDS011;3384;42.628;23.380;2023-03-05T09:22:59;20.47;;;13.70;;
6693;SDS011;3384;42.628;23.380;2023-03-05T09:25:26;26.27;;;14.00;;
6693;SDS011;3384;42.628;23.380;2023-03-05T09:27:53;18.23;;;12.40;;
6693;SDS011;3384;42.628;23.380;2023-03-05T09:30:21;22.40;;;12.07;;
6693;SDS011;3384;42.628;23.380;2023-03-05T09:32:47;24.03;;;11.23;;
6693;SDS011;3384;42.628;23.380;2023-03-05T09:35:16;18.00;;;13.47;;
6693;SDS011;3384;42.628;23.380;2023-03-05T09:37:43;17.63;;;12.00;;
6693;SDS011;3384;42.628;23.380;2023-03-05T09:40:11;16.93;;;11.60;;
6693;SDS011;3384;42.628;23.380;2023-03-05T09:42:44;20.50;;;14.20;;
6693;SDS011;3384;42.628;23.380;2023-03-05T09:45:17;16.57;;;9.70;;
6693;SDS011;3384;42.628;23.380;2023-03-05T09:47:50;17.97;;;10.37;;
6693;SDS011;3384;42.628;23.380;2023-03-05T09:50:22;15.23;;;10.20;;
6693;SDS011;3384;42.628;23.380;2023-03-05T09:52:56;14.37;;;10.30;;
6693;SDS011;3384;42.628;23.380;2023-03-05T09:55:24;20.13;;;13.60;;
6693;SDS011;3384;42.628;23.380;2023-03-05T09:57:55;18.80;;;10.53;;
6693;SDS011;3384;42.628;23.380;2023-03-05T10:00:26;28.00;;;11.60;;
6693;SDS011;3384;42.628;23.380;2023-03-05T10:02:58;19.73;;;13.50;;
6693;SDS011;3384;42.628;23.380;2023-03-05T10:05:27;18.67;;;11.50;;
6693;SDS011;3384;42.628;23.380;2023-03-05T10:07:56;16.37;;;9.73;;
6693;SDS011;3384;42.628;23.380;2023-03-05T10:10:25;18.03;;;12.03;;
6693;SDS011;3384;42.628;23.380;2023-03-05T10:12:54;18.27;;;13.07;;
6693;SDS011;3384;42.628;23.380;2023-03-05T10:15:24;21.40;;;13.63;;
6693;SDS011;3384;42.628;23.380;2023-03-05T10:17:58;12.43;;;9.00;;
6693;SDS011;3384;42.628;23.380;2023-03-05T10:20:38;15.17;;;10.80;;
6693;SDS011;3384;42.628;23.380;2023-03-05T10:23:20;14.40;;;10.20;;
6693;SDS011;3384;42.628;23.380;2023-03-05T10:25:52;18.07;;;13.50;;
6693;SDS011;3384;42.628;23.380;2023-03-05T10:28:21;14.50;;;10.43;;
6693;SDS011;3384;42.628;23.380;2023-03-05T10:30:54;15.77;;;12.53;;
6693;SDS011;3384;42.628;23.380;2023-03-05T10:33:25;25.83;;;11.83;;
6693;SDS011;3384;42.628;23.380;2023-03-05T10:38:41;20.63;;;9.60;;
6693;SDS011;3384;42.628;23.380;2023-03-05T10:41:12;15.60;;;11.20;;
6693;SDS011;3384;42.628;23.380;2023-03-05T10:43:43;15.73;;;10.43;;
6693;SDS011;3384;42.628;23.380;2023-03-05T10:46:14;17.03;;;11.50;;
6693;SDS011;3384;42.628;23.380;2023-03-05T10:48:43;16.70;;;11.37;;
6693;SDS011;3384;42.628;23.380;2023-03-05T10:51:12;15.13;;;11.00;;
6693;SDS011;3384;42.628;23.380;2023-03-05T10:53:44;17.90;;;12.33;;
6693;SDS011;3384;42.628;23.380;2023-03-05T10:56:13;13.10;;;10.20;;
6693;SDS011;3384;42.628;23.380;2023-03-05T10:58:40;9.87;;;8.83;;
6693;SDS011;3384;42.628;23.380;2023-03-05T11:01:17;13.10;;;9.47;;
6693;SDS011;3384;42.628;23.380;2023-03-05T11:03:49;11.33;;;8.97;;
6693;SDS011;3384;42.628;23.380;2023-03-05T11:06:21;7.67;;;6.90;;
6693;SDS011;3384;42.628;23.380;2023-03-05T11:08:51;11.77;;;8.93;;
6693;SDS011;3384;42.628;23.380;2023-03-05T11:11:18;19.13;;;11.10;;
6693;SDS011;3384;42.628;23.380;2023-03-05T11:13:52;16.03;;;10.87;;
6693;SDS011;3384;42.628;23.380;2023-03-05T11:16:20;15.57;;;9.60;;
6693;SDS011;3384;42.628;23.380;2023-03-05T11:18:49;10.73;;;9.53;;
6693;SDS011;3384;42.628;23.380;2023-03-05T11:21:36;13.97;;;9.97;;
6693;SDS011;3384;42.628;23.380;2023-03-05T11:24:03;9.83;;;8.50;;
6693;SDS011;3384;42.628;23.380;2023-03-05T11:26:30;10.20;;;9.17;;
6693;SDS011;3384;42.628;23.380;2023-03-05T11:28:57;9.80;;;8.80;;
6693;SDS011;3384;42.628;23.380;2023-03-05T11:31:24;13.17;;;8.50;;
6693;SDS011;3384;42.628;23.380;2023-03-05T11:33:57;13.03;;;10.50;;
6693;SDS011;3384;42.628;23.380;2023-03-05T11:36:24;9.27;;;8.47;;
6693;SDS011;3384;42.628;23.380;2023-03-05T11:38:54;11.50;;;10.43;;
6693;SDS011;3384;42.628;23.380;2023-03-05T11:41:23;14.10;;;9.97;;
6693;SDS011;3384;42.628;23.380;2023-03-05T11:43:50;17.40;;;10.63;;
6693;SDS011;3384;42.628;23.380;2023-03-05T11:46:17;12.53;;;8.93;;
6693;SDS011;3384;42.628;23.380;2023-03-05T11:48:44;14.27;;;9.20;;
6693;SDS011;3384;42.628;23.380;2023-03-05T11:51:14;8.37;;;7.63;;
6693;SDS011;3384;42.628;23.380;2023-03-05T11:53:41;13.90;;;10.10;;
6693;SDS011;3384;42.628;23.380;2023-03-05T11:56:12;14.53;;;9.00;;
6693;SDS011;3384;42.628;23.380;2023-03-05T11:58:42;14.10;;;8.90;;
6693;SDS011;3384;42.628;23.380;2023-03-05T12:01:13;11.70;;;9.97;;
6693;SDS011;3384;42.628;23.380;2023-03-05T12:03:40;17.33;;;9.90;;
6693;SDS011;3384;42.628;23.380;2023-03-05T12:06:09;9.03;;;7.47;;
6693;SDS011;3384;42.628;23.380;2023-03-05T12:08:41;12.33;;;8.73;;
6693;SDS011;3384;42.628;23.380;2023-03-05T12:11:12;12.40;;;9.70;;
6693;SDS011;3384;42.628;23.380;2023-03-05T12:13:42;9.90;;;8.90;;
6693;SDS011;3384;42.628;23.380;2023-03-05T12:16:16;11.10;;;7.07;;
6693;SDS011;3384;42.628;23.380;2023-03-05T12:18:51;10.63;;;7.87;;
6693;SDS011;3384;42.628;23.380;2023-03-05T12:21:23;8.80;;;8.00;;
6693;SDS011;3384;42.628;23.380;2023-03-05T12:23:54;14.27;;;8.70;;
6693;SDS011;3384;42.628;23.380;2023-03-05T12:29:04;14.30;;;9.40;;
6693;SDS011;3384;42.628;23.380;2023-03-05T12:31:35;16.43;;;9.57;;
6693;SDS011;3384;42.628;23.380;2023-03-05T12:36:56;9.80;;;8.50;;
6693;SDS011;3384;42.628;23.380;2023-03-05T12:45:21;12.33;;;9.70;;
6693;SDS011;3384;42.628;23.380;2023-03-05T12:47:48;12.37;;;9.60;;
6693;SDS011;3384;42.628;23.380;2023-03-05T12:50:50;17.77;;;10.17;;
6693;SDS011;3384;42.628;23.380;2023-03-05T12:53:22;13.13;;;9.70;;
6693;SDS011;3384;42.628;23.380;2023-03-05T12:55:50;15.37;;;6.73;;
6693;SDS011;3384;42.628;23.380;2023-03-05T12:58:21;8.27;;;7.47;;
6693;SDS011;3384;42.628;23.380;2023-03-05T13:00:51;9.60;;;7.93;;
6693;SDS011;3384;42.628;23.380;2023-03-05T13:03:19;8.43;;;7.63;;
6693;SDS011;3384;42.628;23.380;2023-03-05T13:05:48;10.00;;;8.30;;
6693;SDS011;3384;42.628;23.380;2023-03-05T13:08:19;9.47;;;7.90;;
6693;SDS011;3384;42.628;23.380;2023-03-05T13:10:50;13.57;;;8.40;;
6693;SDS011;3384;42.628;23.380;2023-03-05T13:13:17;13.43;;;9.13;;
6693;SDS011;3384;42.628;23.380;2023-03-05T13:15:44;9.60;;;8.67;;
6693;SDS011;3384;42.628;23.380;2023-03-05T13:18:13;8.53;;;7.83;;
6693;SDS011;3384;42.628;23.380;2023-03-05T13:20:43;10.07;;;8.97;;
6693;SDS011;3384;42.628;23.380;2023-03-05T13:23:15;8.40;;;7.57;;
6693;SDS011;3384;42.628;23.380;2023-03-05T13:25:44;10.03;;;7.93;;
6693;SDS011;3384;42.628;23.380;2023-03-05T13:28:11;10.13;;;6.90;;
6693;SDS011;3384;42.628;23.380;2023-03-05T13:30:37;11.43;;;9.03;;
6693;SDS011;3384;42.628;23.380;2023-03-05T13:33:04;12.07;;;9.50;;
6693;SDS011;3384;42.628;23.380;2023-03-05T13:35:31;12.60;;;9.63;;
6693;SDS011;3384;42.628;23.380;2023-03-05T13:37:58;11.50;;;9.23;;
6693;SDS011;3384;42.628;23.380;2023-03-05T13:40:25;10.97;;;8.10;;
6693;SDS011;3384;42.628;23.380;2023-03-05T13:42:53;12.73;;;8.47;;
6693;SDS011;3384;42.628;23.380;2023-03-05T13:45:22;18.57;;;9.87;;
6693;SDS011;3384;42.628;23.380;2023-03-05T13:47:53;10.73;;;8.60;;
6693;SDS011;3384;42.628;23.380;2023-03-05T13:50:21;12.90;;;9.67;;
6693;SDS011;3384;42.628;23.380;2023-03-05T13:52:48;12.03;;;8.33;;
6693;SDS011;3384;42.628;23.380;2023-03-05T13:55:15;12.67;;;8.67;;
6693;SDS011;3384;42.628;23.380;2023-03-05T13:57:42;11.90;;;9.43;;
6693;SDS011;3384;42.628;23.380;2023-03-05T14:02:52;10.37;;;8.30;;
6693;SDS011;3384;42.628;23.380;2023-03-05T14:05:19;11.50;;;9.77;;
6693;SDS011;3384;42.628;23.380;2023-03-05T14:07:47;17.03;;;10.23;;
6693;SDS011;3384;42.628;23.380;2023-03-05T14:10:27;12.63;;;8.87;;
6693;SDS011;3384;42.628;23.380;2023-03-05T14:12:54;16.73;;;10.20;;
6693;SDS011;3384;42.628;23.380;2023-03-05T14:15:21;12.03;;;8.87;;
6693;SDS011;3384;42.628;23.380;2023-03-05T14:17:48;14.77;;;10.80;;
6693;SDS011;3384;42.628;23.380;2023-03-05T14:20:26;15.53;;;10.40;;
6693;SDS011;3384;42.628;23.380;2023-03-05T14:22:53;13.80;;;10.30;;
6693;SDS011;3384;42.628;23.380;2023-03-05T14:25:31;12.20;;;9.37;;
6693;SDS011;3384;42.628;23.380;2023-03-05T14:27:59;16.17;;;9.97;;
6693;SDS011;3384;42.628;23.380;2023-03-05T14:30:25;15.03;;;8.93;;
6693;SDS011;3384;42.628;23.380;2023-03-05T14:32:55;13.10;;;9.07;;
6693;SDS011;3384;42.628;23.380;2023-03-05T14:35:22;12.53;;;8.60;;
6693;SDS011;3384;42.628;23.380;2023-03-05T14:37:51;18.73;;;11.97;;
6693;SDS011;3384;42.628;23.380;2023-03-05T14:40:19;11.80;;;10.03;;
6693;SDS011;3384;42.628;23.380;2023-03-05T14:42:50;13.80;;;8.80;;
6693;SDS011;3384;42.628;23.380;2023-03-05T14:45:18;16.53;;;8.60;;
6693;SDS011;3384;42.628;23.380;2023-03-05T14:47:45;16.90;;;10.90;;
6693;SDS011;3384;42.628;23.380;2023-03-05T14:50:13;16.87;;;9.07;;
6693;SDS011;3384;42.628;23.380;2023-03-05T14:52:40;12.63;;;11.03;;
6693;SDS011;3384;42.628;23.380;2023-03-05T14:55:12;17.47;;;9.80;;
6693;SDS011;3384;42.628;23.380;2023-03-05T14:57:38;15.90;;;9.13;;
6693;SDS011;3384;42.628;23.380;2023-03-05T15:00:05;13.60;;;9.20;;
6693;SDS011;3384;42.628;23.380;2023-03-05T15:02:33;19.13;;;10.10;;
6693;SDS011;3384;42.628;23.380;2023-03-05T15:04:59;12.73;;;10.07;;